Portada
METAR-TAF:

METAR-TAF

Aeroports :

L'Havana, Cuba

latitud: 22-59N, longitud: 082-24W, altitud: 59 m

Observació

L'informe es va fer fa 33 minuts, a les 13:55 UTC
Vent calma
Temperatura 26°C
Humitat 100%
Pressió 1015 hPa
Visibilitat: 8000 m
Escasses núvols a una alçada de 2000 ft, Cumulus congestus.
Cel ennuvolat a una alçada de 3300 ft

METAR: MUHA 301355Z 00000KT 8000 FEW020TCU BKN033 26/26 Q1015

Hora: 10:28 (14:28 UTC)

Pronòstic

L'informe es va fer fa 21 hores i 28 minuts, a les 17:00 UTC
Pronòstic vàlid del 29 a les 18 UTC al 30 a les 18 UTC
Vent 7 kt del Sud
Visibilitat: 9000 m
Núvols disperses a una alçada de 3000 ft
Temporalment
l' 29 a les 19 UTC al 30 a les 02 UTC
Vent 10 kt amb direcció variable
Visibilitat: 5000 m
Escasses núvols a una alçada de 2000 ft, Cumulonimbus.
Cel ennuvolat a una alçada de 3000 ft
xàfecs de pluja

TAF: MUHA 291700Z 2918/3018 17007KT 9000 SCT030 TEMPO 2919/3002 VRB10KT 5000 SHRA FEW020CB BKN030

Observacions i pronòstics meteorològics de més de 4000 aeroports (METAR i TAF).

Les estacions disponibles són els punts grocs i vermells al mapa.

Posi el ratolí al punt desitjat per veure el nom de l'estació.

Feu clic per veure les observacions i els pronòstics meteorològics.

Per canviar el mapa: feu clic els botons verds amb una creu de color negre per apropar; al botó verd amb un guió per allunyar la imatge; o en les fletxes verdes per a mapes adjacents.


METAR-TAF: